createdAt,value
2019-04-20T00:01:29.255Z,100562.13
2019-04-20T00:03:58.961Z,100559.20
2019-04-20T00:06:37.727Z,100566.09
2019-04-20T00:09:11.838Z,100568.91
2019-04-20T00:11:50.225Z,100577.92
2019-04-20T00:14:14.503Z,100591.30
2019-04-20T00:16:48.337Z,100590.66
2019-04-20T00:19:26.250Z,100595.09
2019-04-20T00:22:00.482Z,100598.27
2019-04-20T00:24:33.266Z,100595.59
2019-04-20T00:27:22.082Z,100600.02
2019-04-20T00:29:56.191Z,100605.64
2019-04-20T00:34:18.257Z,100602.70
2019-04-20T00:36:43.326Z,100609.26
2019-04-20T00:39:17.223Z,100617.45
2019-04-20T00:41:55.001Z,100619.95
2019-04-20T00:44:26.268Z,100627.89
2019-04-20T00:47:04.925Z,100627.07
2019-04-20T00:49:40.681Z,100631.61
2019-04-20T00:54:37.258Z,100634.25
2019-04-20T00:57:20.377Z,100642.93
2019-04-20T01:00:02.640Z,100639.67
2019-04-20T01:02:29.608Z,100650.78
2019-04-20T01:05:04.594Z,100653.60
2019-04-20T01:07:37.448Z,100653.20
2019-04-20T01:10:00.508Z,100659.69
2019-04-20T01:12:34.920Z,100662.86
2019-04-20T01:15:10.809Z,100661.77
2019-04-20T01:17:41.689Z,100673.77
2019-04-20T01:20:13.612Z,100670.11
2019-04-20T01:22:53.589Z,100669.77
2019-04-20T01:25:27.264Z,100670.23
2019-04-20T01:28:10.441Z,100681.81
2019-04-20T01:30:35.310Z,100676.12
2019-04-20T01:33:17.606Z,100677.45
2019-04-20T01:35:53.581Z,100678.23
2019-04-20T01:38:26.686Z,100684.55
2019-04-20T01:40:42.706Z,100684.80
2019-04-20T01:43:16.242Z,100681.62
2019-04-20T01:45:52.326Z,100684.45
2019-04-20T01:48:27.473Z,100688.50
2019-04-20T01:51:05.963Z,100685.45
2019-04-20T01:53:44.269Z,100700.16
2019-04-20T01:56:17.079Z,100697.39
2019-04-20T01:58:52.444Z,100699.05
2019-04-20T02:01:17.843Z,100700.34
2019-04-20T02:03:48.966Z,100703.80
2019-04-20T02:06:25.087Z,100701.64
2019-04-20T02:09:02.196Z,100710.32
2019-04-20T02:11:34.285Z,100709.29
2019-04-20T02:14:05.204Z,100708.04
2019-04-20T02:16:41.815Z,100709.37
2019-04-20T02:19:22.994Z,100712.67
2019-04-20T02:21:55.966Z,100708.22
2019-04-20T02:24:14.485Z,100714.53
2019-04-20T02:26:45.197Z,100720.19
2019-04-20T02:29:43.047Z,100712.05
2019-04-20T02:32:23.945Z,100711.58
2019-04-20T02:37:52.940Z,100723.72
2019-04-20T02:42:44.798Z,100713.81
2019-04-20T02:45:28.233Z,100712.80
2019-04-20T02:47:53.174Z,100710.28
2019-04-20T02:50:19.147Z,100703.76
2019-04-20T02:58:05.314Z,100710.72
2019-04-20T03:00:44.754Z,100707.72
2019-04-20T03:02:55.918Z,100697.49
2019-04-20T03:05:30.747Z,100697.03
2019-04-20T03:08:08.528Z,100692.87
2019-04-20T03:10:56.717Z,100685.84
2019-04-20T03:13:18.815Z,100685.84
2019-04-20T03:15:48.635Z,100674.75
2019-04-20T03:18:27.963Z,100680.19
2019-04-20T03:21:08.125Z,100675.02
2019-04-20T03:23:47.632Z,100671.20
2019-04-20T03:26:13.872Z,100673.62
2019-04-20T03:28:44.092Z,100672.59
2019-04-20T03:31:58.574Z,100674.64
2019-04-20T03:34:15.246Z,100668.08
2019-04-20T03:36:35.198Z,100672.80
2019-04-20T03:39:04.192Z,100663.56
2019-04-20T03:41:30.214Z,100665.79
2019-04-20T03:44:05.667Z,100664.41
2019-04-20T03:46:37.607Z,100666.70
2019-04-20T03:49:20.077Z,100665.53
2019-04-20T03:51:57.318Z,100662.09
2019-04-20T03:54:24.992Z,100666.00
2019-04-20T03:57:15.263Z,100658.13
2019-04-20T03:59:37.000Z,100662.48
2019-04-20T04:02:43.343Z,100654.03
2019-04-20T04:04:49.452Z,100651.11
2019-04-20T04:07:16.690Z,100640.84
2019-04-20T04:09:57.569Z,100640.30
2019-04-20T04:12:23.654Z,100627.25
2019-04-20T04:14:47.495Z,100627.25
2019-04-20T04:17:26.902Z,100635.39
2019-04-20T04:19:59.960Z,100617.97
2019-04-20T04:22:43.351Z,100617.97
2019-04-20T04:25:18.428Z,100618.31
2019-04-20T04:27:54.663Z,100615.42
2019-04-20T04:30:27.936Z,100605.28
2019-04-20T04:33:37.906Z,100605.97
2019-04-20T04:35:35.069Z,100604.32
2019-04-20T04:38:14.298Z,100598.55
2019-04-20T04:40:55.725Z,100600.48
2019-04-20T04:43:19.728Z,100595.27
2019-04-20T04:45:35.195Z,100587.80
2019-04-20T04:48:14.786Z,100591.12
2019-04-20T04:50:48.361Z,100586.02
2019-04-20T04:53:28.462Z,100578.08
2019-04-20T04:55:54.923Z,100581.75
2019-04-20T04:58:19.659Z,100576.23
2019-04-20T05:00:56.569Z,100570.82
2019-04-20T05:03:44.775Z,100574.28
2019-04-20T05:06:18.642Z,100567.60
2019-04-20T05:08:41.986Z,100557.37
2019-04-20T05:11:09.080Z,100550.25
2019-04-20T05:13:50.573Z,100560.47
2019-04-20T05:16:37.467Z,100544.25
2019-04-20T05:19:13.557Z,100536.05
2019-04-20T05:21:50.012Z,100533.55
2019-04-20T05:24:20.713Z,100518.36
2019-04-20T05:26:58.310Z,100521.12
2019-04-20T05:29:15.455Z,100516.06
2019-04-20T05:31:46.349Z,100508.00
2019-04-20T05:34:32.211Z,100502.01
2019-04-20T05:37:05.923Z,100493.03
2019-04-20T05:39:45.783Z,100497.09
2019-04-20T06:36:33.853Z,100371.86
2019-04-20T06:39:13.382Z,100366.68
2019-04-20T06:41:57.122Z,100368.38
2019-04-20T06:44:14.797Z,100358.91
2019-04-20T06:46:53.674Z,100349.37
2019-04-20T06:51:52.725Z,100343.11
2019-04-20T06:54:20.939Z,100332.70
2019-04-20T06:57:07.238Z,100331.84
2019-04-20T06:59:43.427Z,100325.90
2019-04-20T07:02:20.237Z,100321.30
2019-04-20T07:04:58.102Z,100312.20
2019-04-20T07:07:19.618Z,100311.47
2019-04-20T07:10:06.814Z,100301.92
2019-04-20T07:12:24.004Z,100296.30
2019-04-20T07:14:54.124Z,100287.14
2019-04-20T07:20:11.584Z,100282.40
2019-04-20T07:22:46.005Z,100271.85
2019-04-20T07:25:26.245Z,100266.77
2019-04-20T07:27:53.767Z,100257.96
2019-04-20T07:30:32.470Z,100255.56
2019-04-20T07:33:08.917Z,100250.14
2019-04-20T07:35:35.457Z,100238.62
2019-04-20T07:40:55.825Z,100222.22
2019-04-20T07:43:33.363Z,100220.06
2019-04-20T07:46:09.341Z,100212.45
2019-04-20T07:48:45.312Z,100211.25
2019-04-20T07:51:08.181Z,100206.17
2019-04-20T07:53:40.326Z,100213.56
2019-04-20T07:56:25.359Z,100207.88
2019-04-20T07:58:46.064Z,100201.70
2019-04-20T08:01:38.878Z,100197.41
2019-04-20T08:04:07.734Z,100197.80
2019-04-20T08:06:30.819Z,100189.49
2019-04-20T08:09:12.911Z,100187.67
2019-04-20T08:11:59.104Z,100186.40
2019-04-20T08:14:27.198Z,100176.20
2019-04-20T08:17:13.793Z,100181.56
2019-04-20T08:19:28.639Z,100173.18
2019-04-20T08:22:10.314Z,100173.77
2019-04-20T08:24:37.397Z,100172.06
2019-04-20T08:26:59.054Z,100166.36
2019-04-20T08:29:44.208Z,100163.34
2019-04-20T08:32:23.677Z,100161.25
2019-04-20T08:35:03.190Z,100151.17
2019-04-20T08:37:35.314Z,100144.17
2019-04-20T08:40:15.017Z,100140.70
2019-04-20T08:42:49.785Z,100138.61
2019-04-20T08:45:16.333Z,100130.16
2019-04-20T08:47:57.060Z,100134.01
2019-04-20T08:50:35.613Z,100131.83
2019-04-20T08:53:17.350Z,100127.90
2019-04-20T08:55:40.108Z,100132.92
2019-04-20T08:57:54.394Z,100129.94
2019-04-20T09:00:34.458Z,100123.86
2019-04-20T09:03:09.329Z,100122.30
2019-04-20T09:05:45.813Z,100128.67
2019-04-20T09:08:18.827Z,100126.96
2019-04-20T09:11:08.359Z,100114.66
2019-04-20T09:13:34.288Z,100114.54
2019-04-20T09:16:04.800Z,100116.64
2019-04-20T09:18:49.395Z,100109.28
2019-04-20T09:21:27.118Z,100104.11
2019-04-20T09:24:11.869Z,100106.42
2019-04-20T09:26:41.339Z,100109.91
2019-04-20T09:29:12.630Z,100114.27
2019-04-20T09:31:47.095Z,100115.19
2019-04-20T09:34:44.876Z,100115.44
2019-04-20T09:37:16.467Z,100118.12
2019-04-20T09:39:33.814Z,100123.30
2019-04-20T09:42:01.911Z,100123.30
2019-04-20T09:44:45.110Z,100123.59
2019-04-20T09:47:14.169Z,100123.59
2019-04-20T09:49:57.996Z,100127.88
2019-04-20T09:52:32.269Z,100128.42
2019-04-20T09:55:06.978Z,100132.17
2019-04-20T09:57:43.915Z,100133.65
2019-04-20T10:00:16.745Z,100131.20
2019-04-20T10:02:34.789Z,100126.24
2019-04-20T10:05:07.373Z,100119.08
2019-04-20T10:07:40.967Z,100126.61
2019-04-20T10:10:23.886Z,100129.22
2019-04-20T10:12:48.299Z,100123.84
2019-04-20T10:15:23.400Z,100130.34
2019-04-20T10:17:53.947Z,100130.34
2019-04-20T10:20:31.229Z,100137.92
2019-04-20T10:22:58.449Z,100133.48
2019-04-20T10:25:30.861Z,100133.48
2019-04-20T10:28:03.459Z,100136.45
2019-04-20T10:30:34.732Z,100132.42
2019-04-20T10:33:07.674Z,100132.42
2019-04-20T10:35:39.826Z,100124.31
2019-04-20T10:38:13.769Z,100124.31
2019-04-20T10:40:55.814Z,100141.69
2019-04-20T10:43:17.958Z,100142.39
2019-04-20T10:45:48.869Z,100147.92
2019-04-20T10:48:21.409Z,100150.48
2019-04-20T10:50:52.860Z,100155.33
2019-04-20T10:53:25.898Z,100157.06
2019-04-20T10:55:57.792Z,100154.21
2019-04-20T10:58:29.596Z,100154.66
2019-04-20T11:01:01.800Z,100145.09
2019-04-20T11:03:34.603Z,100147.53
2019-04-20T11:06:06.792Z,100150.51
2019-04-20T11:08:40.257Z,100157.42
2019-04-20T11:11:18.002Z,100156.41
2019-04-20T11:13:47.577Z,100159.29
2019-04-20T11:16:20.768Z,100161.39
2019-04-20T11:18:53.594Z,100161.16
2019-04-20T11:21:26.345Z,100167.50
2019-04-20T11:23:58.427Z,100167.05
2019-04-20T11:26:39.934Z,100176.28
2019-04-20T11:29:16.094Z,100180.55
2019-04-20T11:31:51.533Z,100183.10
2019-04-20T11:34:29.907Z,100190.95
2019-04-20T11:37:01.374Z,100185.98
2019-04-20T11:39:34.981Z,100191.66
2019-04-20T11:42:08.047Z,100194.43
2019-04-20T11:44:42.968Z,100186.25
2019-04-20T11:47:14.830Z,100186.51
2019-04-20T11:49:47.258Z,100190.98
2019-04-20T11:52:21.395Z,100192.16
2019-04-20T11:55:00.184Z,100191.91
2019-04-20T11:57:31.573Z,100198.61
2019-04-20T12:00:03.609Z,100203.13
2019-04-20T12:02:42.243Z,100207.38
2019-04-20T12:05:23.894Z,100211.53
2019-04-20T12:07:51.061Z,100214.08
2019-04-20T12:10:27.793Z,100215.58
2019-04-20T12:13:01.650Z,100221.47
2019-04-20T12:15:36.794Z,100221.83
2019-04-20T12:18:07.639Z,100218.00
2019-04-20T12:20:42.857Z,100217.52
2019-04-20T12:23:16.448Z,100226.16
2019-04-20T12:25:52.446Z,100233.43
2019-04-20T12:28:25.615Z,100235.17
2019-04-20T12:31:04.167Z,100240.81
2019-04-20T12:33:30.779Z,100251.66
2019-04-20T12:36:02.515Z,100256.48
2019-04-20T12:38:37.067Z,100267.33
2019-04-20T12:41:12.411Z,100263.98
2019-04-20T12:43:44.090Z,100259.70
2019-04-20T12:46:19.778Z,100265.84
2019-04-20T12:48:51.597Z,100276.65
2019-04-20T12:51:31.477Z,100279.77
2019-04-20T12:53:58.451Z,100280.69
2019-04-20T12:56:30.981Z,100289.44
2019-04-20T12:59:03.390Z,100294.75
2019-04-20T13:01:39.615Z,100295.89
2019-04-20T13:04:18.796Z,100300.49
2019-04-20T13:06:54.835Z,100304.17
2019-04-20T13:09:24.199Z,100313.17
2019-04-20T13:12:11.688Z,100306.97
2019-04-20T13:14:46.429Z,100309.27
2019-04-20T13:17:22.066Z,100309.48
2019-04-20T13:20:01.635Z,100318.58
2019-04-20T13:22:34.936Z,100319.74
2019-04-20T13:25:08.133Z,100329.70
2019-04-20T13:27:43.293Z,100330.19
2019-04-20T13:30:16.660Z,100335.00
2019-04-20T13:32:51.697Z,100343.28
2019-04-20T13:35:34.303Z,100346.75
2019-04-20T13:38:07.867Z,100344.90
2019-04-20T13:40:41.792Z,100343.52
2019-04-20T13:43:17.623Z,100355.59
2019-04-20T13:45:50.959Z,100361.01
2019-04-20T13:48:27.033Z,100362.39
2019-04-20T13:50:58.339Z,100365.59
2019-04-20T13:53:30.513Z,100366.52
2019-04-20T13:56:03.697Z,100369.63
2019-04-20T13:58:38.173Z,100376.43
2019-04-20T14:01:12.598Z,100379.86
2019-04-20T14:03:45.289Z,100384.00
2019-04-20T14:06:16.969Z,100383.31
2019-04-20T14:08:51.477Z,100386.64
2019-04-20T14:11:25.179Z,100385.95
2019-04-20T14:14:07.847Z,100391.33
2019-04-20T14:16:41.248Z,100391.01
2019-04-20T14:19:16.778Z,100399.05
2019-04-20T14:21:52.180Z,100399.86
2019-04-20T14:24:24.695Z,100406.20
2019-04-20T14:26:56.973Z,100406.05
2019-04-20T14:29:28.630Z,100403.28
2019-04-20T14:32:10.256Z,100408.59
2019-04-20T14:34:44.798Z,100413.73
2019-04-20T14:37:17.182Z,100413.73
2019-04-20T14:39:50.294Z,100425.81
2019-04-20T14:42:33.097Z,100430.61
2019-04-20T14:44:55.495Z,100441.66
2019-04-20T14:47:27.888Z,100445.02
2019-04-20T14:50:02.940Z,100443.00
2019-04-20T14:52:33.526Z,100444.38
2019-04-20T14:55:07.824Z,100443.66
2019-04-20T14:57:43.601Z,100446.67
2019-04-20T15:00:17.698Z,100448.84
2019-04-20T15:02:50.058Z,100451.51
2019-04-20T15:05:23.286Z,100456.81
2019-04-20T15:08:00.645Z,100457.37
2019-04-20T15:10:32.981Z,100457.80
2019-04-20T15:13:06.301Z,100464.02
2019-04-20T15:15:44.844Z,100467.22
2019-04-20T15:18:17.997Z,100477.00
2019-04-20T15:20:51.341Z,100474.23
2019-04-20T15:23:25.840Z,100475.14
2019-04-20T15:26:00.338Z,100477.64
2019-04-20T15:28:42.404Z,100469.54
2019-04-20T15:31:14.528Z,100473.25
2019-04-20T15:33:54.843Z,100476.01
2019-04-20T15:36:24.229Z,100486.53
2019-04-20T15:39:05.250Z,100483.55
2019-04-20T15:41:39.208Z,100482.73
2019-04-20T15:44:11.280Z,100474.31
2019-04-20T15:46:45.591Z,100473.98
2019-04-20T15:49:17.927Z,100479.41
2019-04-20T15:51:50.360Z,100477.08
2019-04-20T15:57:19.626Z,100480.09
2019-04-20T15:59:50.597Z,100468.75
2019-04-20T16:02:25.183Z,100466.78
2019-04-20T16:05:10.207Z,100473.89
2019-04-20T16:07:52.459Z,100474.66
2019-04-20T16:13:37.634Z,100473.02
2019-04-20T16:16:09.935Z,100475.65
2019-04-20T16:18:41.219Z,100464.81
2019-04-20T16:21:16.136Z,100475.85
2019-04-20T16:23:46.321Z,100475.69
2019-04-20T16:26:21.837Z,100477.85
2019-04-20T16:28:53.859Z,100473.57
2019-04-20T16:31:32.745Z,100469.66
2019-04-20T16:34:05.296Z,100474.53
2019-04-20T16:36:38.846Z,100478.19
2019-04-20T16:39:11.134Z,100477.85
2019-04-20T16:41:46.898Z,100474.47
2019-04-20T16:44:18.777Z,100480.33
2019-04-20T16:46:50.404Z,100474.22
2019-04-20T16:49:23.351Z,100475.59
2019-04-20T16:52:00.624Z,100468.48
2019-04-20T16:54:32.630Z,100466.03
2019-04-20T16:57:07.709Z,100459.56
2019-04-20T16:59:41.398Z,100465.42
2019-04-20T17:02:19.933Z,100464.69
2019-04-20T17:04:53.306Z,100464.69
2019-04-20T17:07:37.166Z,100459.51
2019-04-20T17:10:11.917Z,100456.19
2019-04-20T17:12:44.099Z,100457.23
2019-04-20T17:15:23.694Z,100454.25
2019-04-20T17:17:58.580Z,100453.56
2019-04-20T17:20:40.976Z,100458.18
2019-04-20T17:23:13.395Z,100453.56
2019-04-20T17:25:46.016Z,100448.95
2019-04-20T17:28:18.609Z,100454.55
2019-04-20T17:30:55.146Z,100447.66
2019-04-20T17:33:30.196Z,100450.37
2019-04-20T17:36:12.388Z,100445.29
2019-04-20T17:38:54.370Z,100444.34
2019-04-20T17:41:44.641Z,100435.97
2019-04-20T17:44:23.825Z,100427.02
2019-04-20T17:46:45.014Z,100425.98
2019-04-20T17:49:25.645Z,100423.52
2019-04-20T17:52:15.994Z,100426.02
2019-04-20T17:54:29.485Z,100427.37
2019-04-20T17:57:02.332Z,100425.41
2019-04-20T17:59:34.846Z,100421.86
2019-04-20T18:02:20.808Z,100430.44
2019-04-20T18:05:09.923Z,100421.47
2019-04-20T18:07:42.516Z,100423.53
2019-04-20T18:10:12.291Z,100420.31
2019-04-20T18:12:32.838Z,100413.59
2019-04-20T18:15:13.969Z,100408.84
2019-04-20T18:17:56.171Z,100399.50
2019-04-20T18:20:14.783Z,100398.38
2019-04-20T18:22:53.198Z,100392.30
2019-04-20T18:25:53.398Z,100393.51
2019-04-20T18:28:14.584Z,100391.70
2019-04-20T18:30:43.692Z,100392.86
2019-04-20T18:33:17.798Z,100386.57
2019-04-20T18:35:49.489Z,100381.89
2019-04-20T18:38:22.064Z,100380.63
2019-04-20T18:41:02.671Z,100378.05
2019-04-20T18:43:45.828Z,100372.87
2019-04-20T18:46:25.947Z,100368.04
2019-04-20T18:49:08.530Z,100368.91
2019-04-20T18:51:23.855Z,100363.52
2019-04-20T18:54:00.596Z,100362.09
2019-04-20T18:56:40.321Z,100362.79
2019-04-20T18:59:07.096Z,100350.95
2019-04-20T19:01:46.684Z,100363.04
2019-04-20T19:04:17.774Z,100353.82
2019-04-20T19:06:50.033Z,100351.55
2019-04-20T19:09:30.508Z,100352.53
2019-04-20T19:12:04.077Z,100349.73
2019-04-20T19:14:40.077Z,100357.19
2019-04-20T19:17:20.375Z,100354.30
2019-04-20T19:19:48.282Z,100345.25
2019-04-20T19:22:17.516Z,100344.21
2019-04-20T19:24:49.749Z,100340.33
2019-04-20T19:27:30.287Z,100342.78
2019-04-20T19:30:05.581Z,100337.56
2019-04-20T19:32:45.218Z,100337.09
2019-04-20T19:35:27.417Z,100329.95
2019-04-20T19:37:56.943Z,100333.00
2019-04-20T19:40:36.103Z,100326.84
2019-04-20T19:43:08.476Z,100326.80
2019-04-20T19:46:00.098Z,100322.09
2019-04-20T19:48:28.178Z,100320.55
2019-04-20T19:51:13.929Z,100310.47
2019-04-20T19:53:38.135Z,100312.84
2019-04-20T19:56:03.543Z,100311.67
2019-04-20T19:58:34.479Z,100310.73
2019-04-20T20:00:59.279Z,100307.84
2019-04-20T20:03:29.956Z,100307.20
2019-04-20T20:06:01.692Z,100303.80
2019-04-20T20:08:36.402Z,100298.06
2019-04-20T20:11:18.498Z,100301.51
2019-04-20T20:13:48.565Z,100298.33
2019-04-20T20:16:27.119Z,100297.13
2019-04-20T20:19:01.494Z,100298.05
2019-04-20T20:21:35.996Z,100299.91
2019-04-20T20:23:56.458Z,100301.25
2019-04-20T20:26:36.184Z,100303.84
2019-04-20T20:29:11.906Z,100309.61
2019-04-20T20:31:55.600Z,100301.98
2019-04-20T20:34:24.403Z,100299.70
2019-04-20T20:36:54.922Z,100304.61
2019-04-20T20:39:24.159Z,100315.30
2019-04-20T20:42:01.595Z,100315.84
2019-04-20T20:44:38.921Z,100311.37
2019-04-20T20:47:31.330Z,100314.47
2019-04-20T20:50:08.750Z,100307.78
2019-04-20T20:52:32.222Z,100312.88
2019-04-20T20:55:03.798Z,100315.30
2019-04-20T20:57:42.417Z,100313.31
2019-04-20T21:00:07.473Z,100327.48
2019-04-20T21:02:44.042Z,100325.02
2019-04-20T21:05:09.289Z,100330.05
2019-04-20T21:07:51.025Z,100328.11
2019-04-20T21:10:26.874Z,100338.26
2019-04-20T21:12:57.951Z,100349.84
2019-04-20T21:15:28.569Z,100342.17
2019-04-20T21:18:24.800Z,100342.88
2019-04-20T21:20:55.218Z,100345.54
2019-04-20T21:23:25.452Z,100353.19
2019-04-20T21:25:51.051Z,100353.84
2019-04-20T21:28:22.748Z,100361.83
2019-04-20T21:30:57.822Z,100360.55
2019-04-20T21:33:36.733Z,100361.03
2019-04-20T21:36:09.198Z,100354.03
2019-04-20T21:38:42.910Z,100361.68
2019-04-20T21:41:16.865Z,100363.95
2019-04-20T21:43:48.194Z,100365.75
2019-04-20T21:46:20.802Z,100366.20
2019-04-20T21:49:09.773Z,100361.59
2019-04-20T21:51:43.646Z,100367.58
2019-04-20T21:54:05.526Z,100376.75
2019-04-20T21:56:38.318Z,100377.64
2019-04-20T21:59:16.464Z,100380.20
2019-04-20T22:01:53.882Z,100379.11
2019-04-20T22:04:16.425Z,100382.82
2019-04-20T22:06:50.021Z,100387.99
2019-04-20T22:09:34.727Z,100387.28
2019-04-20T22:11:58.188Z,100399.20
2019-04-20T22:14:33.634Z,100401.14
2019-04-20T22:17:05.258Z,100405.95
2019-04-20T22:19:52.939Z,100410.64
2019-04-20T22:22:42.432Z,100412.56
2019-04-20T22:25:23.142Z,100409.55
2019-04-20T22:27:37.641Z,100407.69
2019-04-20T22:30:10.326Z,100415.20
2019-04-20T22:32:48.079Z,100415.95
2019-04-20T22:35:22.759Z,100416.25
2019-04-20T22:38:03.630Z,100419.20
2019-04-20T22:40:33.280Z,100416.58
2019-04-20T22:43:04.236Z,100418.30
2019-04-20T22:45:42.226Z,100426.07
2019-04-20T22:48:12.420Z,100425.00
